createdAt,value
2022-09-20T00:02:05.009Z,1.70
2022-09-20T00:07:07.116Z,1.60
2022-09-20T00:12:10.168Z,1.92
2022-09-20T00:17:12.032Z,1.70
2022-09-20T00:22:13.886Z,1.85
2022-09-20T00:27:15.691Z,2.00
2022-09-20T00:32:17.653Z,1.67
2022-09-20T00:37:19.608Z,1.52
2022-09-20T00:42:46.942Z,1.75
2022-09-20T00:47:53.721Z,2.17
2022-09-20T00:53:06.149Z,2.63
2022-09-20T00:58:09.485Z,2.25
2022-09-20T01:03:15.545Z,2.35
2022-09-20T01:08:18.360Z,2.10
2022-09-20T01:13:20.173Z,1.40
2022-09-20T01:18:23.523Z,1.83
2022-09-20T01:23:28.282Z,1.80
2022-09-20T01:28:30.620Z,2.00
2022-09-20T01:33:53.479Z,1.70
2022-09-20T01:39:10.523Z,1.42
2022-09-20T01:44:40.519Z,1.85
2022-09-20T01:50:23.579Z,1.90
2022-09-20T01:55:57.231Z,1.52
2022-09-20T02:01:24.373Z,1.70
2022-09-20T02:06:54.622Z,1.70
2022-09-20T02:12:08.364Z,1.50
2022-09-20T02:17:14.913Z,1.40
2022-09-20T02:22:54.238Z,0.77
2022-09-20T02:28:14.157Z,0.70
2022-09-20T02:33:37.186Z,0.93
2022-09-20T02:38:46.493Z,0.80
2022-09-20T02:44:00.348Z,0.98
2022-09-20T02:49:20.072Z,0.85
2022-09-20T02:54:46.212Z,1.27
2022-09-20T02:59:58.726Z,1.40
2022-09-20T03:05:06.209Z,0.73
2022-09-20T03:10:32.742Z,0.85
2022-09-20T03:15:58.037Z,0.70
2022-09-20T03:21:11.905Z,0.82
2022-09-20T03:26:19.586Z,0.93
2022-09-20T03:31:41.710Z,1.27
2022-09-20T03:37:04.924Z,1.73
2022-09-20T03:42:23.390Z,2.15
2022-09-20T03:47:43.653Z,2.63
2022-09-20T03:53:19.900Z,1.83
2022-09-20T03:58:30.826Z,1.30
2022-09-20T04:03:35.588Z,0.90
2022-09-20T04:08:56.105Z,1.25
2022-09-20T04:14:12.922Z,1.70
2022-09-20T04:19:32.774Z,2.10
2022-09-20T04:25:13.864Z,2.17
2022-09-20T04:30:44.018Z,2.00
2022-09-20T04:36:15.440Z,2.50
2022-09-20T04:41:34.490Z,2.80
2022-09-20T04:46:57.926Z,2.95
2022-09-20T04:52:04.153Z,3.25
2022-09-20T04:57:36.852Z,3.78
2022-09-20T05:02:57.837Z,3.30
2022-09-20T05:08:37.123Z,3.65
2022-09-20T05:14:01.123Z,2.75
2022-09-20T05:19:10.349Z,3.10
2022-09-20T05:24:35.056Z,3.08
2022-09-20T05:29:42.410Z,2.65
2022-09-20T05:34:53.885Z,2.78
2022-09-20T05:40:22.107Z,3.03
2022-09-20T05:45:45.578Z,3.80
2022-09-20T05:51:18.847Z,3.30
2022-09-20T05:56:42.996Z,3.20
2022-09-20T06:02:29.669Z,3.75
2022-09-20T06:08:13.030Z,4.50
2022-09-20T06:13:50.337Z,5.63
2022-09-20T06:19:32.515Z,5.95
2022-09-20T06:24:37.468Z,4.22
2022-09-20T06:29:44.175Z,3.67
2022-09-20T06:34:47.812Z,5.25
2022-09-20T06:40:29.847Z,3.50
2022-09-20T06:45:32.289Z,3.10
2022-09-20T06:50:36.311Z,3.60
2022-09-20T06:55:41.025Z,4.15
2022-09-20T07:00:42.939Z,3.67
2022-09-20T07:05:44.739Z,4.18
2022-09-20T07:10:46.604Z,5.07
2022-09-20T07:15:48.639Z,4.95
2022-09-20T07:20:50.472Z,4.60
2022-09-20T07:25:52.918Z,4.75
2022-09-20T07:30:54.713Z,4.07
2022-09-20T07:35:56.584Z,4.15
2022-09-20T07:41:01.024Z,4.03
2022-09-20T07:46:03.257Z,4.15
2022-09-20T07:51:08.905Z,4.10
2022-09-20T07:56:15.896Z,4.20
2022-09-20T08:01:17.771Z,4.70
2022-09-20T08:06:21.460Z,5.72
2022-09-20T08:11:27.846Z,4.97
2022-09-20T08:16:31.151Z,5.50
2022-09-20T08:21:34.878Z,6.60
2022-09-20T08:26:37.280Z,6.40
2022-09-20T08:31:42.409Z,6.88
2022-09-20T08:36:47.111Z,5.55
2022-09-20T08:41:56.823Z,7.22
2022-09-20T08:47:22.507Z,7.28
2022-09-20T08:52:37.081Z,5.60
2022-09-20T08:57:39.188Z,6.53
2022-09-20T09:02:41.744Z,6.68
2022-09-20T09:07:43.573Z,6.25
2022-09-20T09:12:48.716Z,5.82
2022-09-20T09:17:50.786Z,4.65
2022-09-20T09:23:05.606Z,4.28
2022-09-20T09:28:07.392Z,4.50
2022-09-20T09:33:31.065Z,3.67
2022-09-20T09:38:38.454Z,4.57
2022-09-20T09:43:40.714Z,3.30
2022-09-20T09:48:42.719Z,3.28
2022-09-20T09:53:46.499Z,4.45
2022-09-20T09:58:58.099Z,3.95
2022-09-20T10:04:36.473Z,4.07
2022-09-20T10:09:59.507Z,4.93
2022-09-20T10:15:40.465Z,4.47
2022-09-20T10:21:00.747Z,4.13
2022-09-20T10:26:22.485Z,4.40
2022-09-20T10:31:36.963Z,4.97
2022-09-20T10:36:43.712Z,3.58
2022-09-20T10:42:18.760Z,3.10
2022-09-20T10:47:28.976Z,4.05
2022-09-20T10:52:36.530Z,3.42
2022-09-20T10:57:56.542Z,2.67
2022-09-20T11:03:13.771Z,2.50
2022-09-20T11:08:25.599Z,3.15
2022-09-20T11:14:04.272Z,2.45
2022-09-20T11:19:31.446Z,2.40
2022-09-20T11:24:51.549Z,1.95
2022-09-20T11:30:02.115Z,1.90
2022-09-20T11:35:29.409Z,1.70
2022-09-20T11:40:38.713Z,2.17
2022-09-20T11:45:43.268Z,2.80
2022-09-20T11:50:47.799Z,2.20
2022-09-20T11:56:02.126Z,2.80
2022-09-20T12:01:12.907Z,2.63
2022-09-20T12:07:09.696Z,2.50
2022-09-20T12:12:32.872Z,1.83
2022-09-20T12:17:47.055Z,1.60
2022-09-20T12:22:49.037Z,1.80
2022-09-20T12:27:50.965Z,0.95
2022-09-20T12:32:56.517Z,1.23
2022-09-20T12:38:37.658Z,1.40
2022-09-20T12:43:58.997Z,1.10
2022-09-20T12:49:48.518Z,0.73
2022-09-20T12:54:53.603Z,0.60
2022-09-20T12:59:59.565Z,1.20
2022-09-20T13:05:01.513Z,1.10
2022-09-20T13:10:17.193Z,0.60
2022-09-20T13:15:21.911Z,0.85
2022-09-20T13:20:28.140Z,1.30
2022-09-20T13:25:30.736Z,1.85
2022-09-20T13:30:32.992Z,1.98
2022-09-20T13:35:35.119Z,1.85
2022-09-20T13:40:42.627Z,1.67
2022-09-20T13:45:45.125Z,1.33
2022-09-20T13:50:51.349Z,1.20
2022-09-20T13:55:55.752Z,0.80
2022-09-20T14:01:37.621Z,0.88
2022-09-20T14:06:39.527Z,0.70
2022-09-20T14:11:41.554Z,0.50
2022-09-20T14:16:46.773Z,0.80
2022-09-20T14:21:49.275Z,0.73
2022-09-20T14:27:04.724Z,0.30
2022-09-20T14:32:12.232Z,0.43
2022-09-20T14:37:26.037Z,0.47
2022-09-20T14:42:35.529Z,0.47
2022-09-20T14:47:55.637Z,2.23
2022-09-20T14:53:13.900Z,0.57
2022-09-20T14:58:15.861Z,1.65
2022-09-20T15:03:25.589Z,0.60
2022-09-20T15:08:27.747Z,0.50
2022-09-20T15:13:29.697Z,1.20
2022-09-20T15:18:37.257Z,0.70
2022-09-20T15:23:40.572Z,1.70
2022-09-20T15:28:43.012Z,3.80
2022-09-20T15:33:44.905Z,2.20
2022-09-20T15:38:46.824Z,1.38
2022-09-20T15:43:50.397Z,1.67
2022-09-20T15:48:53.205Z,0.93
2022-09-20T15:53:57.441Z,1.17
2022-09-20T15:59:04.030Z,1.10
2022-09-20T16:04:14.242Z,2.00
2022-09-20T16:09:16.626Z,1.70
2022-09-20T16:14:18.690Z,2.33
2022-09-20T16:19:21.097Z,1.80
2022-09-20T16:24:28.061Z,1.10
2022-09-20T16:29:30.880Z,0.70
2022-09-20T16:34:34.920Z,1.20
2022-09-20T16:39:37.366Z,1.10
2022-09-20T16:44:42.214Z,1.10
2022-09-20T16:49:44.608Z,0.98
2022-09-20T16:54:46.813Z,1.20
2022-09-20T16:59:48.992Z,1.00
2022-09-20T17:04:51.145Z,0.93
2022-09-20T17:10:00.848Z,0.82
2022-09-20T17:15:02.796Z,1.00
2022-09-20T17:20:06.816Z,3.92
2022-09-20T17:25:09.681Z,1.80
2022-09-20T17:30:12.106Z,1.90
2022-09-20T17:35:14.486Z,2.20
2022-09-20T17:40:16.488Z,2.03
2022-09-20T17:45:18.828Z,2.13
2022-09-20T17:50:20.742Z,1.75
2022-09-20T17:55:23.348Z,1.70
2022-09-20T18:00:25.288Z,2.33
2022-09-20T18:05:27.378Z,2.15
2022-09-20T18:10:29.339Z,14.95
2022-09-20T18:15:32.912Z,4.60
2022-09-20T18:20:34.883Z,3.42
2022-09-20T18:25:56.749Z,3.38
2022-09-20T18:31:05.449Z,2.90
2022-09-20T18:36:07.764Z,2.58
2022-09-20T18:41:10.147Z,2.17
2022-09-20T18:46:13.096Z,3.47
2022-09-20T18:51:16.064Z,2.25
2022-09-20T18:56:24.125Z,2.50
2022-09-20T19:01:55.710Z,2.47
2022-09-20T19:07:28.106Z,2.55
2022-09-20T19:12:46.232Z,3.78
2022-09-20T19:18:06.423Z,3.33
2022-09-20T19:23:28.861Z,3.60
2022-09-20T19:28:31.326Z,2.90
2022-09-20T19:33:33.410Z,3.58
2022-09-20T19:39:15.923Z,4.35
2022-09-20T19:44:27.511Z,3.50
2022-09-20T19:49:55.361Z,3.90
2022-09-20T19:54:57.772Z,3.35
2022-09-20T19:59:59.898Z,3.53
2022-09-20T20:05:03.587Z,3.13
2022-09-20T20:10:31.482Z,3.47
2022-09-20T20:15:46.696Z,3.15
2022-09-20T20:20:50.673Z,3.67
2022-09-20T20:26:03.061Z,3.67
2022-09-20T20:31:06.474Z,3.35
2022-09-20T20:36:17.363Z,3.70
2022-09-20T20:41:21.511Z,3.85
2022-09-20T20:46:24.536Z,3.20
2022-09-20T20:51:27.416Z,3.35
2022-09-20T20:56:30.289Z,2.65
2022-09-20T21:01:42.914Z,3.10
2022-09-20T21:06:45.159Z,2.47
2022-09-20T21:11:48.608Z,1.98
2022-09-20T21:16:51.911Z,2.45
2022-09-20T21:21:53.925Z,2.20
2022-09-20T21:26:55.824Z,1.80
2022-09-20T21:31:57.829Z,1.92
2022-09-20T21:37:00.219Z,1.40
2022-09-20T21:42:04.479Z,2.05
2022-09-20T21:47:06.790Z,1.58
2022-09-20T21:52:08.626Z,1.65
2022-09-20T21:57:13.712Z,1.50
2022-09-20T22:02:17.051Z,1.63
2022-09-20T22:07:19.002Z,1.70
2022-09-20T22:12:23.941Z,1.67
2022-09-20T22:17:27.126Z,1.52
2022-09-20T22:22:28.919Z,1.70
2022-09-20T22:27:30.767Z,1.50
2022-09-20T22:32:32.551Z,1.30
2022-09-20T22:37:34.336Z,1.75
2022-09-20T22:42:36.166Z,2.55
2022-09-20T22:47:37.979Z,2.50
2022-09-20T22:52:39.724Z,2.00
2022-09-20T22:57:41.474Z,1.92
2022-09-20T23:02:43.221Z,2.00
2022-09-20T23:07:48.875Z,2.08
2022-09-20T23:12:51.596Z,2.50
2022-09-20T23:17:53.356Z,2.45
2022-09-20T23:22:55.110Z,3.03
2022-09-20T23:27:56.855Z,2.15
2022-09-20T23:32:58.642Z,1.88
2022-09-20T23:38:00.514Z,2.33
2022-09-20T23:43:02.396Z,2.95
2022-09-20T23:48:04.343Z,2.20
2022-09-20T23:53:06.135Z,3.10
2022-09-20T23:58:08.062Z,3.40
